createdAt,value
2019-01-20T00:01:40.825Z,-7.90
2019-01-20T00:04:10.267Z,-7.80
2019-01-20T00:06:40.169Z,-7.80
2019-01-20T00:09:11.976Z,-7.90
2019-01-20T00:11:41.501Z,-7.90
2019-01-20T00:14:10.929Z,-7.90
2019-01-20T00:16:40.394Z,-7.90
2019-01-20T00:19:09.966Z,-7.90
2019-01-20T00:21:40.369Z,-7.90
2019-01-20T00:24:09.871Z,-7.90
2019-01-20T00:26:39.493Z,-7.90
2019-01-20T00:29:08.928Z,-8.00
2019-01-20T00:31:38.403Z,-8.00
2019-01-20T00:34:08.184Z,-8.00
2019-01-20T00:36:37.656Z,-8.00
2019-01-20T00:39:09.645Z,-8.00
2019-01-20T00:41:39.070Z,-8.00
2019-01-20T00:44:10.657Z,-7.90
2019-01-20T00:46:40.225Z,-7.90
2019-01-20T00:49:09.669Z,-8.00
2019-01-20T00:51:42.478Z,-8.00
2019-01-20T00:54:13.926Z,-8.10
2019-01-20T00:56:43.306Z,-8.10
2019-01-20T00:59:12.899Z,-8.10
2019-01-20T01:01:45.399Z,-8.00
2019-01-20T01:04:14.851Z,-8.00
2019-01-20T01:06:44.353Z,-8.10
2019-01-20T01:09:13.852Z,-8.10
2019-01-20T01:11:43.309Z,-8.10
2019-01-20T01:14:12.766Z,-8.10
2019-01-20T01:16:42.195Z,-8.10
2019-01-20T01:19:11.705Z,-8.20
2019-01-20T01:21:41.182Z,-8.20
2019-01-20T01:24:10.643Z,-8.10
2019-01-20T01:26:40.297Z,-8.10
2019-01-20T01:29:09.743Z,-8.10
2019-01-20T01:31:39.209Z,-8.10
2019-01-20T01:34:08.676Z,-8.10
2019-01-20T01:36:38.286Z,-8.20
2019-01-20T01:39:09.329Z,-8.20
2019-01-20T01:41:39.157Z,-8.20
2019-01-20T01:44:08.983Z,-8.20
2019-01-20T01:46:38.425Z,-8.20
2019-01-20T01:49:07.902Z,-8.30
2019-01-20T01:51:37.384Z,-8.30
2019-01-20T01:54:06.854Z,-8.30
2019-01-20T01:56:36.486Z,-8.30
2019-01-20T01:59:06.148Z,-8.20
2019-01-20T02:01:35.618Z,-8.20
2019-01-20T02:04:05.082Z,-8.30
2019-01-20T02:06:35.774Z,-8.30
2019-01-20T02:09:08.024Z,-8.30
2019-01-20T02:11:37.552Z,-8.30
2019-01-20T02:14:07.287Z,-8.30
2019-01-20T02:16:36.898Z,-8.30
2019-01-20T02:19:06.682Z,-8.30
2019-01-20T02:21:36.160Z,-8.40
2019-01-20T02:24:05.744Z,-8.40
2019-01-20T02:26:35.512Z,-8.50
2019-01-20T02:29:06.040Z,-8.50
2019-01-20T02:31:35.902Z,-8.40
2019-01-20T02:34:05.392Z,-8.40
2019-01-20T02:36:34.879Z,-8.30
2019-01-20T02:39:05.746Z,-8.30
2019-01-20T02:41:35.162Z,-8.20
2019-01-20T02:44:04.887Z,-8.10
2019-01-20T02:46:34.345Z,-8.00
2019-01-20T02:49:03.783Z,-7.80
2019-01-20T02:51:33.337Z,-7.70
2019-01-20T02:54:05.702Z,-7.60
2019-01-20T02:56:35.169Z,-7.40
2019-01-20T02:59:04.622Z,-7.30
2019-01-20T03:01:34.210Z,-7.20
2019-01-20T03:04:03.667Z,-7.10
2019-01-20T03:06:33.336Z,-7.10
2019-01-20T03:09:04.612Z,-7.10
2019-01-20T03:11:34.148Z,-7.10
2019-01-20T03:14:03.703Z,-6.90
2019-01-20T03:16:33.505Z,-7.00
2019-01-20T03:19:04.317Z,-6.90
2019-01-20T03:21:33.923Z,-6.90
2019-01-20T03:24:03.377Z,-6.90
2019-01-20T03:26:32.853Z,-7.00
2019-01-20T03:29:02.326Z,-7.00
2019-01-20T03:31:31.869Z,-7.00
2019-01-20T03:34:01.290Z,-7.10
2019-01-20T03:36:30.784Z,-7.00
2019-01-20T03:39:00.273Z,-7.00
2019-01-20T03:41:29.780Z,-7.00
2019-01-20T03:43:59.237Z,-6.90
2019-01-20T03:46:28.969Z,-6.90
2019-01-20T03:48:58.435Z,-6.90
2019-01-20T03:51:27.914Z,-7.00
2019-01-20T03:53:57.676Z,-7.00
2019-01-20T03:56:27.163Z,-7.00
2019-01-20T03:58:57.245Z,-6.90
2019-01-20T04:01:26.683Z,-6.80
2019-01-20T04:03:56.405Z,-6.80
2019-01-20T04:06:25.883Z,-6.80
2019-01-20T04:08:55.345Z,-6.80
2019-01-20T04:11:25.129Z,-6.80
2019-01-20T04:13:54.559Z,-6.90
2019-01-20T04:16:25.002Z,-6.90
2019-01-20T04:18:54.500Z,-6.90
2019-01-20T04:21:24.010Z,-6.90
2019-01-20T04:23:55.968Z,-6.90
2019-01-20T04:26:25.501Z,-7.00
2019-01-20T04:28:54.957Z,-6.90
2019-01-20T04:31:24.439Z,-6.90
2019-01-20T04:33:53.888Z,-6.90
2019-01-20T04:36:23.390Z,-6.80
2019-01-20T04:38:52.837Z,-6.80
2019-01-20T04:41:22.535Z,-6.80
2019-01-20T04:43:51.988Z,-6.90
2019-01-20T04:46:21.516Z,-6.80
2019-01-20T04:48:51.029Z,-6.90
2019-01-20T04:51:20.612Z,-7.00
2019-01-20T04:53:51.616Z,-7.00
2019-01-20T04:56:21.123Z,-7.10
2019-01-20T04:58:51.836Z,-7.20
2019-01-20T05:01:21.295Z,-7.40
2019-01-20T05:03:50.801Z,-7.50
2019-01-20T05:06:20.586Z,-7.50
2019-01-20T05:08:50.061Z,-7.60
2019-01-20T05:11:19.533Z,-7.60
2019-01-20T05:13:49.012Z,-7.40
2019-01-20T05:16:18.655Z,-7.60
2019-01-20T05:18:48.152Z,-7.70
2019-01-20T05:21:17.615Z,-7.70
2019-01-20T05:23:47.392Z,-7.80
2019-01-20T05:26:16.838Z,-7.90
2019-01-20T05:28:46.550Z,-8.00
2019-01-20T05:31:16.040Z,-8.20
2019-01-20T05:33:45.460Z,-8.10
2019-01-20T05:36:15.412Z,-8.10
2019-01-20T05:38:44.910Z,-8.30
2019-01-20T05:41:14.533Z,-8.30
2019-01-20T05:43:44.005Z,-8.20
2019-01-20T05:46:13.454Z,-8.30
2019-01-20T05:48:43.155Z,-8.20
2019-01-20T05:51:12.615Z,-8.30
2019-01-20T05:53:42.144Z,-8.40
2019-01-20T05:56:11.913Z,-8.50
2019-01-20T05:58:41.422Z,-8.60
2019-01-20T06:01:11.142Z,-8.50
2019-01-20T06:03:40.667Z,-8.40
2019-01-20T06:06:10.166Z,-8.60
2019-01-20T06:08:40.244Z,-8.30
2019-01-20T06:11:09.662Z,-8.40
2019-01-20T06:13:39.320Z,-8.50
2019-01-20T06:16:08.827Z,-8.60
2019-01-20T06:18:38.284Z,-8.60
2019-01-20T06:21:07.973Z,-8.60
2019-01-20T06:23:37.497Z,-8.60
2019-01-20T06:26:06.925Z,-8.60
2019-01-20T06:28:36.781Z,-8.80
2019-01-20T06:31:06.213Z,-8.70
2019-01-20T06:33:36.098Z,-8.70
2019-01-20T06:36:05.775Z,-8.80
2019-01-20T06:38:35.391Z,-8.80
2019-01-20T06:41:04.852Z,-8.80
2019-01-20T06:43:34.477Z,-8.70
2019-01-20T06:46:04.683Z,-8.80
2019-01-20T06:48:34.271Z,-8.70
2019-01-20T06:51:03.708Z,-8.70
2019-01-20T06:53:33.365Z,-8.70
2019-01-20T06:56:03.707Z,-8.80
2019-01-20T06:58:33.216Z,-8.70
2019-01-20T07:01:03.309Z,-8.70
2019-01-20T07:03:32.767Z,-8.60
2019-01-20T07:06:02.231Z,-8.60
2019-01-20T07:08:32.361Z,-8.50
2019-01-20T07:11:01.813Z,-8.30
2019-01-20T07:13:31.287Z,-8.20
2019-01-20T07:16:00.764Z,-8.00
2019-01-20T07:18:30.253Z,-7.70
2019-01-20T07:21:00.170Z,-7.50
2019-01-20T07:23:29.625Z,-7.30
2019-01-20T07:25:59.064Z,-6.60
2019-01-20T07:28:28.808Z,-5.90
2019-01-20T07:30:58.477Z,-5.50
2019-01-20T07:33:28.086Z,-4.90
2019-01-20T07:35:57.582Z,-4.40
2019-01-20T07:38:27.115Z,-4.20
2019-01-20T07:40:56.591Z,-4.00
2019-01-20T07:43:26.122Z,-3.90
2019-01-20T07:45:55.545Z,-3.80
2019-01-20T07:48:25.153Z,-3.80
2019-01-20T07:50:54.637Z,-3.90
2019-01-20T07:53:24.610Z,-3.60
2019-01-20T07:55:54.040Z,-3.30
2019-01-20T07:58:23.797Z,-3.00
2019-01-20T08:00:53.467Z,-2.40
2019-01-20T08:03:22.874Z,-2.50
2019-01-20T08:05:52.323Z,-2.20
2019-01-20T08:08:21.909Z,-2.00
2019-01-20T08:10:51.423Z,-1.70
2019-01-20T08:13:24.351Z,-0.50
2019-01-20T08:15:52.860Z,-0.50
2019-01-20T08:18:23.759Z,-1.10
2019-01-20T08:20:53.332Z,-0.90
2019-01-20T08:23:22.851Z,0.00
2019-01-20T08:25:54.586Z,1.00
2019-01-20T08:28:24.094Z,1.40
2019-01-20T08:30:55.266Z,1.70
2019-01-20T08:33:25.824Z,2.20
2019-01-20T08:35:58.508Z,2.00
2019-01-20T08:38:27.939Z,1.90
2019-01-20T08:40:57.612Z,3.40
2019-01-20T08:43:31.939Z,1.70
2019-01-20T08:47:04.963Z,1.90
2019-01-20T08:49:34.536Z,2.20
2019-01-20T08:52:03.999Z,3.50
2019-01-20T08:54:34.480Z,3.40
2019-01-20T08:57:04.005Z,3.40
2019-01-20T08:59:33.484Z,3.50
2019-01-20T09:02:02.940Z,3.60
2019-01-20T09:04:32.963Z,5.10
2019-01-20T09:07:02.457Z,4.70
2019-01-20T09:09:32.073Z,3.90
2019-01-20T09:12:01.680Z,5.20
2019-01-20T09:14:31.113Z,3.20
2019-01-20T09:17:00.666Z,2.90
2019-01-20T09:19:30.078Z,2.90
2019-01-20T09:21:59.500Z,2.90
2019-01-20T09:24:29.013Z,3.30
2019-01-20T09:26:58.765Z,2.80
2019-01-20T09:29:28.237Z,2.80
2019-01-20T09:31:57.686Z,2.10
2019-01-20T09:34:27.271Z,2.80
2019-01-20T09:36:56.708Z,3.70
2019-01-20T09:39:26.175Z,4.70
2019-01-20T09:41:56.081Z,4.20
2019-01-20T09:44:25.588Z,2.60
2019-01-20T09:46:57.623Z,2.40
2019-01-20T09:49:29.146Z,2.10
2019-01-20T09:51:58.764Z,2.90
2019-01-20T09:54:28.212Z,2.70
2019-01-20T09:56:57.730Z,2.40
2019-01-20T09:59:27.232Z,2.70
2019-01-20T10:01:56.768Z,3.00
2019-01-20T10:04:26.319Z,2.10
2019-01-20T10:06:55.950Z,2.00
2019-01-20T10:09:26.365Z,2.30
2019-01-20T10:11:56.601Z,2.30
2019-01-20T10:14:26.327Z,2.70
2019-01-20T10:16:55.949Z,2.30
2019-01-20T10:19:25.473Z,2.20
2019-01-20T10:21:54.928Z,2.70
2019-01-20T10:24:24.451Z,3.00
2019-01-20T10:26:53.983Z,3.10
2019-01-20T10:29:23.916Z,3.40
2019-01-20T10:31:53.506Z,3.30
2019-01-20T10:34:23.214Z,3.00
2019-01-20T10:36:53.536Z,2.80
2019-01-20T10:39:23.056Z,3.00
2019-01-20T10:41:53.546Z,3.20
2019-01-20T10:44:23.180Z,4.30
2019-01-20T10:46:52.723Z,4.20
2019-01-20T10:49:22.125Z,4.10
2019-01-20T10:51:51.687Z,4.80
2019-01-20T10:54:21.093Z,4.00
2019-01-20T10:56:50.609Z,4.10
2019-01-20T10:59:20.280Z,4.50
2019-01-20T11:01:49.954Z,4.70
2019-01-20T11:04:19.872Z,5.00
2019-01-20T11:06:49.391Z,4.10
2019-01-20T11:09:19.198Z,4.20
2019-01-20T11:11:48.678Z,3.40
2019-01-20T11:14:18.111Z,3.70
2019-01-20T11:16:47.732Z,4.00
2019-01-20T11:19:17.418Z,3.50
2019-01-20T11:21:47.228Z,3.10
2019-01-20T11:24:18.716Z,2.70
2019-01-20T11:26:48.118Z,3.10
2019-01-20T11:29:17.793Z,2.60
2019-01-20T11:31:47.377Z,2.30
2019-01-20T11:34:19.211Z,2.40
2019-01-20T11:36:51.239Z,2.60
2019-01-20T11:39:21.729Z,2.60
2019-01-20T11:41:52.286Z,2.10
2019-01-20T11:44:23.939Z,2.00
2019-01-20T11:46:55.137Z,2.70
2019-01-20T11:49:24.669Z,2.50
2019-01-20T11:51:54.672Z,2.50
2019-01-20T11:54:28.308Z,2.10
2019-01-20T11:56:59.509Z,1.60
2019-01-20T11:59:30.212Z,1.30
2019-01-20T12:01:59.958Z,0.80
2019-01-20T12:04:29.485Z,0.80
2019-01-20T12:06:58.973Z,0.60
2019-01-20T12:09:30.504Z,0.30
2019-01-20T12:12:05.880Z,0.10
2019-01-20T12:14:40.606Z,0.40
2019-01-20T12:17:12.929Z,0.70
2019-01-20T12:19:46.283Z,1.50
2019-01-20T12:22:27.302Z,1.50
2019-01-20T12:24:56.887Z,1.50
2019-01-20T12:27:26.466Z,2.30
2019-01-20T12:29:55.987Z,3.20
2019-01-20T12:32:30.632Z,4.40
2019-01-20T12:35:00.314Z,5.10
2019-01-20T12:37:40.062Z,4.90
2019-01-20T12:40:19.218Z,4.90
2019-01-20T12:42:57.936Z,5.00
2019-01-20T12:45:34.103Z,5.10
2019-01-20T12:48:03.722Z,6.60
2019-01-20T12:50:33.708Z,7.60
2019-01-20T12:53:04.466Z,6.90
2019-01-20T12:55:34.111Z,7.30
2019-01-20T12:58:03.812Z,7.10
2019-01-20T13:00:33.252Z,5.90
2019-01-20T13:03:02.718Z,6.80
2019-01-20T13:05:35.444Z,5.90
2019-01-20T13:08:05.627Z,4.50
2019-01-20T13:10:36.812Z,4.10
2019-01-20T13:13:06.368Z,3.70
2019-01-20T13:15:36.140Z,3.30
2019-01-20T13:18:05.744Z,2.80
2019-01-20T13:20:35.186Z,2.00
2019-01-20T13:23:04.974Z,1.60
2019-01-20T13:25:37.457Z,1.30
2019-01-20T13:28:07.024Z,1.00
2019-01-20T13:30:36.538Z,0.60
2019-01-20T13:33:06.014Z,0.30
2019-01-20T13:35:35.558Z,0.30
2019-01-20T13:38:13.491Z,0.20
2019-01-20T13:40:52.949Z,0.00
2019-01-20T13:43:22.675Z,0.00
2019-01-20T13:45:55.158Z,-0.20
2019-01-20T13:48:24.784Z,0.10
2019-01-20T13:50:54.647Z,0.60
2019-01-20T13:53:24.924Z,0.70
2019-01-20T13:56:01.036Z,0.80
2019-01-20T13:58:28.504Z,0.30
2019-01-20T14:00:58.144Z,0.10
2019-01-20T14:03:30.622Z,-0.10
2019-01-20T14:06:00.226Z,-0.40
2019-01-20T14:08:29.897Z,-0.40
2019-01-20T14:10:59.450Z,-0.50
2019-01-20T14:13:29.141Z,-0.60
2019-01-20T14:15:58.661Z,-0.60
2019-01-20T14:18:28.139Z,-0.70
2019-01-20T14:20:57.681Z,-0.70
2019-01-20T14:23:27.241Z,-0.70
2019-01-20T14:25:56.660Z,-0.70
2019-01-20T14:28:26.084Z,-0.90
2019-01-20T14:30:55.672Z,-0.90
2019-01-20T14:33:25.233Z,-0.90
2019-01-20T14:35:54.665Z,-0.90
2019-01-20T14:38:24.822Z,-1.00
2019-01-20T14:40:55.156Z,-1.00
2019-01-20T14:43:24.560Z,-1.10
2019-01-20T14:46:33.242Z,-1.20
2019-01-20T14:49:03.822Z,-1.20
2019-01-20T14:51:33.560Z,-1.30
2019-01-20T14:54:03.013Z,-1.40
2019-01-20T14:56:32.441Z,-1.40
2019-01-20T14:59:02.093Z,-1.50
2019-01-20T15:01:31.582Z,-1.50
2019-01-20T15:04:01.272Z,-1.50
2019-01-20T15:06:30.799Z,-1.70
2019-01-20T15:09:00.269Z,-1.80
2019-01-20T15:11:29.819Z,-1.80
2019-01-20T15:14:00.610Z,-1.90
2019-01-20T15:16:30.095Z,-2.00
2019-01-20T15:18:59.546Z,-2.10
2019-01-20T15:21:29.071Z,-2.10
2019-01-20T15:23:58.467Z,-2.20
2019-01-20T15:26:28.002Z,-2.20
2019-01-20T15:28:57.794Z,-2.30
2019-01-20T15:31:27.218Z,-2.40
2019-01-20T15:33:56.874Z,-2.30
2019-01-20T15:36:26.345Z,-2.30
2019-01-20T15:38:55.936Z,-2.20
2019-01-20T15:41:25.370Z,-2.30
2019-01-20T15:43:54.903Z,-2.30
2019-01-20T15:46:24.349Z,-2.40
2019-01-20T15:48:54.219Z,-2.40
2019-01-20T15:51:23.679Z,-2.40
2019-01-20T15:53:53.216Z,-2.40
2019-01-20T15:56:24.130Z,-2.50
2019-01-20T15:58:53.653Z,-2.50
2019-01-20T16:01:23.261Z,-2.50
2019-01-20T16:03:53.159Z,-2.40
2019-01-20T16:06:22.839Z,-2.40
2019-01-20T16:08:52.414Z,-2.40
2019-01-20T16:11:21.874Z,-2.30
2019-01-20T16:13:51.387Z,-2.40
2019-01-20T16:16:20.846Z,-2.40
2019-01-20T16:18:50.305Z,-2.40
2019-01-20T16:21:20.213Z,-2.40
2019-01-20T16:23:49.728Z,-2.40
2019-01-20T16:26:19.452Z,-2.50
2019-01-20T16:28:48.928Z,-2.40
2019-01-20T16:31:18.435Z,-2.50
2019-01-20T16:33:47.994Z,-2.50
2019-01-20T16:36:17.622Z,-2.40
2019-01-20T16:38:47.073Z,-2.40
2019-01-20T16:41:16.681Z,-2.40
2019-01-20T16:43:46.111Z,-2.40
2019-01-20T16:46:15.575Z,-2.40
2019-01-20T16:48:45.006Z,-2.50
2019-01-20T16:51:14.532Z,-2.40
2019-01-20T16:53:43.933Z,-2.40
2019-01-20T16:56:13.400Z,-2.40
2019-01-20T16:58:43.174Z,-2.40
2019-01-20T17:01:12.701Z,-2.40
2019-01-20T17:03:42.321Z,-2.40
2019-01-20T17:06:11.983Z,-2.40
2019-01-20T17:08:48.963Z,-2.50
2019-01-20T17:11:24.633Z,-2.50
2019-01-20T17:13:54.160Z,-2.40
2019-01-20T17:16:23.625Z,-2.50
2019-01-20T17:18:53.196Z,-2.50
2019-01-20T17:21:22.803Z,-2.40
2019-01-20T17:23:52.298Z,-2.50
2019-01-20T17:26:21.804Z,-2.50
2019-01-20T17:28:51.528Z,-2.50
2019-01-20T17:31:21.022Z,-2.50
2019-01-20T17:33:50.496Z,-2.60
2019-01-20T17:36:20.165Z,-2.70
2019-01-20T17:38:49.614Z,-2.70
2019-01-20T17:41:19.085Z,-2.80
2019-01-20T17:43:48.691Z,-2.90
2019-01-20T17:46:18.116Z,-2.80
2019-01-20T17:48:47.594Z,-2.80
2019-01-20T17:51:17.156Z,-2.80
2019-01-20T17:53:46.643Z,-2.80
2019-01-20T17:56:16.102Z,-2.80
2019-01-20T17:58:45.886Z,-2.80
2019-01-20T18:01:15.306Z,-2.80
2019-01-20T18:03:44.768Z,-2.90
2019-01-20T18:06:14.400Z,-2.90
2019-01-20T18:08:43.914Z,-2.90
2019-01-20T18:11:13.418Z,-2.90
2019-01-20T18:13:42.833Z,-2.90
2019-01-20T18:16:12.396Z,-2.90
2019-01-20T18:18:41.848Z,-2.90
2019-01-20T18:21:11.375Z,-2.90
2019-01-20T18:23:41.201Z,-2.90
2019-01-20T18:26:10.668Z,-2.90
2019-01-20T18:28:40.105Z,-2.80
2019-01-20T18:31:09.598Z,-2.80
2019-01-20T18:33:39.108Z,-2.80
2019-01-20T18:36:08.556Z,-2.90
2019-01-20T18:38:38.034Z,-2.90
2019-01-20T18:41:07.787Z,-2.80
2019-01-20T18:43:37.305Z,-2.80
2019-01-20T18:46:07.980Z,-2.80
2019-01-20T18:48:37.450Z,-2.80
2019-01-20T18:51:06.897Z,-2.90
2019-01-20T18:53:36.568Z,-2.80
2019-01-20T18:56:06.066Z,-2.90
2019-01-20T18:58:35.486Z,-2.90
2019-01-20T19:01:05.635Z,-3.10
2019-01-20T19:03:35.108Z,-3.20
2019-01-20T19:06:04.792Z,-3.20
2019-01-20T19:08:34.252Z,-3.40
2019-01-20T19:11:03.727Z,-3.60
2019-01-20T19:13:33.189Z,-3.50
2019-01-20T19:16:08.708Z,-3.50
2019-01-20T19:18:33.830Z,-3.50
2019-01-20T19:21:03.253Z,-3.80
2019-01-20T19:23:32.874Z,-4.00
2019-01-20T19:26:02.344Z,-4.10
2019-01-20T19:28:31.811Z,-4.30
2019-01-20T19:31:01.311Z,-4.40
2019-01-20T19:33:30.761Z,-4.50
2019-01-20T19:36:00.242Z,-4.60
2019-01-20T19:38:29.858Z,-4.60
2019-01-20T19:40:59.333Z,-4.60
2019-01-20T19:43:28.814Z,-4.70
2019-01-20T19:45:58.333Z,-4.70
2019-01-20T19:48:27.757Z,-4.80
2019-01-20T19:50:57.224Z,-4.80
2019-01-20T19:53:26.705Z,-4.70
2019-01-20T19:55:56.487Z,-4.80
2019-01-20T19:58:25.897Z,-4.80
2019-01-20T20:00:55.433Z,-4.70
2019-01-20T20:03:25.405Z,-4.80
2019-01-20T20:05:54.837Z,-4.80
2019-01-20T20:08:24.372Z,-4.80
2019-01-20T20:10:54.068Z,-4.70
2019-01-20T20:13:23.770Z,-4.70
2019-01-20T20:15:53.282Z,-4.90
2019-01-20T20:18:24.649Z,-5.10
2019-01-20T20:20:55.252Z,-4.90
2019-01-20T20:23:24.725Z,-4.90
2019-01-20T20:25:54.294Z,-5.00
2019-01-20T20:28:24.071Z,-5.00
2019-01-20T20:30:53.825Z,-5.00
2019-01-20T20:33:23.330Z,-4.80
2019-01-20T20:35:54.607Z,-4.60
2019-01-20T20:38:25.009Z,-4.50
2019-01-20T20:40:54.481Z,-4.20
2019-01-20T20:43:24.203Z,-4.10
2019-01-20T20:45:54.165Z,-4.10
2019-01-20T20:48:23.705Z,-4.00
2019-01-20T20:50:53.187Z,-3.90
2019-01-20T20:53:22.836Z,-3.70
2019-01-20T20:55:52.311Z,-3.70
2019-01-20T20:58:21.820Z,-3.60
2019-01-20T21:00:54.342Z,-3.50
2019-01-20T21:03:29.599Z,-3.50
2019-01-20T21:05:59.337Z,-3.40
2019-01-20T21:08:30.050Z,-3.30
2019-01-20T21:10:59.537Z,-3.30
2019-01-20T21:13:28.999Z,-3.30
2019-01-20T21:15:58.464Z,-3.10
2019-01-20T21:18:27.919Z,-3.10
2019-01-20T21:20:57.422Z,-3.10
2019-01-20T21:23:26.852Z,-3.10
2019-01-20T21:25:56.363Z,-3.00
2019-01-20T21:28:25.815Z,-3.00
2019-01-20T21:30:55.484Z,-3.00
2019-01-20T21:33:24.925Z,-2.90
2019-01-20T21:35:54.408Z,-2.90
2019-01-20T21:38:23.882Z,-2.90
2019-01-20T21:40:53.363Z,-2.80
2019-01-20T21:43:22.866Z,-2.80
2019-01-20T21:45:52.388Z,-2.80
2019-01-20T21:48:21.849Z,-2.80
2019-01-20T21:50:51.298Z,-2.80
2019-01-20T21:53:21.686Z,-2.70
2019-01-20T21:55:51.171Z,-1.80
2019-01-20T21:58:20.600Z,-2.80
2019-01-20T22:00:50.049Z,-2.80
2019-01-20T22:03:19.474Z,-2.70
2019-01-20T22:05:49.098Z,-2.70
2019-01-20T22:08:18.567Z,-2.70
2019-01-20T22:10:48.035Z,-2.70
2019-01-20T22:13:17.530Z,-2.70
2019-01-20T22:15:46.982Z,-2.70
2019-01-20T22:18:16.402Z,-2.70
2019-01-20T22:20:45.938Z,-2.70
2019-01-20T22:23:15.376Z,-2.70
2019-01-20T22:25:44.908Z,-2.60
2019-01-20T22:28:14.377Z,-2.60
2019-01-20T22:30:43.819Z,-2.60
2019-01-20T22:33:13.378Z,-2.60
2019-01-20T22:35:42.967Z,-2.60
2019-01-20T22:38:12.453Z,-2.60
2019-01-20T22:40:41.914Z,-2.60
2019-01-20T22:43:11.367Z,-2.60
2019-01-20T22:45:40.859Z,-2.60
2019-01-20T22:48:10.304Z,-2.60
2019-01-20T22:50:39.801Z,-2.60
2019-01-20T22:53:09.286Z,-2.60
2019-01-20T22:55:38.762Z,-2.60
2019-01-20T22:58:08.225Z,-2.60
2019-01-20T23:00:59.205Z,-2.70
2019-01-20T23:03:29.300Z,-2.80
2019-01-20T23:05:59.069Z,-2.90
2019-01-20T23:08:28.558Z,-3.00
2019-01-20T23:10:58.005Z,-3.20
2019-01-20T23:13:27.455Z,-3.30
2019-01-20T23:15:56.957Z,-3.30
2019-01-20T23:18:26.424Z,-3.40
2019-01-20T23:20:55.890Z,-3.40
2019-01-20T23:23:25.329Z,-3.60
2019-01-20T23:25:54.789Z,-3.80
2019-01-20T23:28:24.258Z,-3.70
2019-01-20T23:30:54.033Z,-3.70
2019-01-20T23:33:23.487Z,-3.80
2019-01-20T23:35:52.981Z,-3.80
2019-01-20T23:38:22.393Z,-3.70
2019-01-20T23:40:51.836Z,-3.60
2019-01-20T23:43:21.301Z,-3.60
2019-01-20T23:45:50.726Z,-3.60
2019-01-20T23:48:20.190Z,-3.50
2019-01-20T23:50:49.613Z,-3.50
2019-01-20T23:53:19.231Z,-3.50
2019-01-20T23:55:48.630Z,-3.40
2019-01-20T23:58:18.179Z,-3.30
